Airfield :
LOGIN :

Register | Disclaimer

   EN    FR    IT 

 










Legend :    VFR   Marginal VFR   IFR   Intensive IFR   Very Intensive IFR
Visi :
Ceiling :
>= 8 km
>= 3000ft
5 to 8 km
1000 to 3000 ft
1500m to 5 km
500 to 1000 ft
800 to 1500m
200 to 500 ft
< 800m
< 200 ft
Symbols :   Thunderstorms  Fog  Heavy snow  Heavy precipitations  Wind > 20 kt
SIGMETs :     Misc.  Thunderstorms  Icing  Turbulence  Mountain Waves  Volcanic Ashes






- Airport Elevation : 675 ft
- IATA code : RZE


EPRZ - Rzeszow-Jasionka

CURRENT METAR :
  • 121230Z 33005KT 290V360 9999 SCT046 19/09 Q1023

EXPIRED METARs :
  • 121200Z 35010KT 290V020 9999 SCT040 18/10 Q1023
  • 121130Z 01007KT 310V060 9999 SCT040 18/08 Q1023
  • 121100Z 33011KT 300V050 9999 BKN030 18/09 Q1023
  • 121030Z 01011KT 320V060 9999 BKN028 17/11 Q1023
  • 121000Z 34008KT 320V030 9999 BKN020 17/12 Q1023

TAF TAF EPRZ
Valid from the 12 at 12:00 until the 13 at 12:00 UTC


121130Z 1212/1312 35010KT 9999 BKN030
TEMPO 1212/1219 -SHRA BKN020CB
BECMG 1219/1221 29008KT
TEMPO 1309/1312 SCT030CB



MET'MAP, your aeronautical weather chart ! - Copyright ORBIFLY December 2007 - Disclaimer

ORBIFLY MET'MAP TEAM :

Programming & Development : Alexandra Zaïnal
Concept & original design : Baudouin d'Aumeries
Assistance for programming : Marc-Olivier Méhu
Technical & hardware support : Manuel Goepfert

Contact : metmap@orbifly.com




SOURCES & CREDITS :

   NOAA